sensor_id;sensor_type;location;lat;lon;timestamp;P1;durP1;ratioP1;P2;durP2;ratioP2
4808;SDS011;2418;49.930;8.606;2022-10-30T00:00:28;28.52;;;14.77;;
4808;SDS011;2418;49.930;8.606;2022-10-30T00:02:54;26.00;;;13.63;;
4808;SDS011;2418;49.930;8.606;2022-10-30T00:05:19;26.40;;;14.00;;
4808;SDS011;2418;49.930;8.606;2022-10-30T00:07:46;30.85;;;14.35;;
4808;SDS011;2418;49.930;8.606;2022-10-30T00:10:13;31.88;;;14.77;;
4808;SDS011;2418;49.930;8.606;2022-10-30T00:12:39;28.10;;;15.53;;
4808;SDS011;2418;49.930;8.606;2022-10-30T00:15:05;34.50;;;15.23;;
4808;SDS011;2418;49.930;8.606;2022-10-30T00:17:31;26.25;;;15.40;;
4808;SDS011;2418;49.930;8.606;2022-10-30T00:19:57;32.05;;;15.27;;
4808;SDS011;2418;49.930;8.606;2022-10-30T00:22:22;25.30;;;14.20;;
4808;SDS011;2418;49.930;8.606;2022-10-30T00:24:49;26.13;;;13.93;;
4808;SDS011;2418;49.930;8.606;2022-10-30T00:27:14;25.50;;;13.60;;
4808;SDS011;2418;49.930;8.606;2022-10-30T00:29:40;35.43;;;14.80;;
4808;SDS011;2418;49.930;8.606;2022-10-30T00:32:06;34.08;;;14.98;;
4808;SDS011;2418;49.930;8.606;2022-10-30T00:34:31;30.67;;;14.37;;
4808;SDS011;2418;49.930;8.606;2022-10-30T00:36:57;30.77;;;14.70;;
4808;SDS011;2418;49.930;8.606;2022-10-30T00:39:23;27.47;;;15.30;;
4808;SDS011;2418;49.930;8.606;2022-10-30T00:41:48;28.37;;;14.50;;
4808;SDS011;2418;49.930;8.606;2022-10-30T00:47:36;32.90;;;13.75;;
4808;SDS011;2418;49.930;8.606;2022-10-30T00:50:04;19.27;;;13.37;;
4808;SDS011;2418;49.930;8.606;2022-10-30T00:52:44;25.85;;;13.25;;
4808;SDS011;2418;49.930;8.606;2022-10-30T00:55:41;30.93;;;14.00;;
4808;SDS011;2418;49.930;8.606;2022-10-30T00:58:11;26.27;;;13.95;;
4808;SDS011;2418;49.930;8.606;2022-10-30T01:00:40;23.92;;;13.35;;
4808;SDS011;2418;49.930;8.606;2022-10-30T01:03:10;21.00;;;13.43;;
4808;SDS011;2418;49.930;8.606;2022-10-30T01:05:36;27.10;;;14.70;;
4808;SDS011;2418;49.930;8.606;2022-10-30T01:08:02;24.17;;;14.60;;
4808;SDS011;2418;49.930;8.606;2022-10-30T01:10:28;25.67;;;13.60;;
4808;SDS011;2418;49.930;8.606;2022-10-30T01:12:54;20.50;;;13.10;;
4808;SDS011;2418;49.930;8.606;2022-10-30T01:15:29;31.70;;;14.03;;
4808;SDS011;2418;49.930;8.606;2022-10-30T01:21:09;33.53;;;13.15;;
4808;SDS011;2418;49.930;8.606;2022-10-30T01:24:01;20.20;;;12.45;;
4808;SDS011;2418;49.930;8.606;2022-10-30T01:29:17;28.98;;;13.05;;
4808;SDS011;2418;49.930;8.606;2022-10-30T01:37:15;30.67;;;13.73;;
4808;SDS011;2418;49.930;8.606;2022-10-30T01:40:00;27.30;;;12.57;;
4808;SDS011;2418;49.930;8.606;2022-10-30T01:48:09;27.80;;;14.10;;
4808;SDS011;2418;49.930;8.606;2022-10-30T02:00:00;26.67;;;13.30;;
4808;SDS011;2418;49.930;8.606;2022-10-30T02:02:29;27.08;;;14.10;;
4808;SDS011;2418;49.930;8.606;2022-10-30T02:04:56;38.42;;;14.52;;
4808;SDS011;2418;49.930;8.606;2022-10-30T02:07:23;34.15;;;14.70;;
4808;SDS011;2418;49.930;8.606;2022-10-30T02:09:52;31.73;;;13.48;;
4808;SDS011;2418;49.930;8.606;2022-10-30T02:12:19;26.80;;;13.95;;
4808;SDS011;2418;49.930;8.606;2022-10-30T02:14:49;29.87;;;14.10;;
4808;SDS011;2418;49.930;8.606;2022-10-30T02:17:18;26.13;;;13.98;;
4808;SDS011;2418;49.930;8.606;2022-10-30T02:19:45;28.92;;;13.48;;
4808;SDS011;2418;49.930;8.606;2022-10-30T02:22:11;33.13;;;14.43;;
4808;SDS011;2418;49.930;8.606;2022-10-30T02:24:36;22.08;;;13.40;;
4808;SDS011;2418;49.930;8.606;2022-10-30T02:27:02;35.20;;;13.53;;
4808;SDS011;2418;49.930;8.606;2022-10-30T02:29:28;29.05;;;13.30;;
4808;SDS011;2418;49.930;8.606;2022-10-30T02:31:54;33.42;;;13.60;;
4808;SDS011;2418;49.930;8.606;2022-10-30T02:34:19;25.10;;;12.73;;
4808;SDS011;2418;49.930;8.606;2022-10-30T02:36:45;26.90;;;12.85;;
4808;SDS011;2418;49.930;8.606;2022-10-30T02:39:10;24.13;;;13.07;;
4808;SDS011;2418;49.930;8.606;2022-10-30T02:41:36;27.08;;;13.57;;
4808;SDS011;2418;49.930;8.606;2022-10-30T02:44:03;24.27;;;13.60;;
4808;SDS011;2418;49.930;8.606;2022-10-30T02:46:30;27.00;;;13.15;;
4808;SDS011;2418;49.930;8.606;2022-10-30T02:48:56;27.63;;;13.00;;
4808;SDS011;2418;49.930;8.606;2022-10-30T02:51:22;28.57;;;12.87;;
4808;SDS011;2418;49.930;8.606;2022-10-30T02:53:48;22.87;;;13.60;;
4808;SDS011;2418;49.930;8.606;2022-10-30T02:56:15;25.63;;;12.40;;
4808;SDS011;2418;49.930;8.606;2022-10-30T02:58:41;27.63;;;13.23;;
4808;SDS011;2418;49.930;8.606;2022-10-30T03:01:11;20.27;;;12.98;;
4808;SDS011;2418;49.930;8.606;2022-10-30T03:03:41;23.53;;;13.10;;
4808;SDS011;2418;49.930;8.606;2022-10-30T03:06:08;27.93;;;12.27;;
4808;SDS011;2418;49.930;8.606;2022-10-30T03:08:35;25.70;;;13.17;;
4808;SDS011;2418;49.930;8.606;2022-10-30T03:11:01;28.02;;;12.95;;
4808;SDS011;2418;49.930;8.606;2022-10-30T03:13:29;29.40;;;13.15;;
4808;SDS011;2418;49.930;8.606;2022-10-30T03:16:37;32.58;;;12.82;;
4808;SDS011;2418;49.930;8.606;2022-10-30T03:18:46;26.33;;;12.80;;
4808;SDS011;2418;49.930;8.606;2022-10-30T03:21:13;22.80;;;12.48;;
4808;SDS011;2418;49.930;8.606;2022-10-30T03:23:41;24.55;;;13.23;;
4808;SDS011;2418;49.930;8.606;2022-10-30T03:26:08;22.52;;;12.88;;
4808;SDS011;2418;49.930;8.606;2022-10-30T03:28:34;24.08;;;12.90;;
4808;SDS011;2418;49.930;8.606;2022-10-30T03:31:04;20.98;;;12.52;;
4808;SDS011;2418;49.930;8.606;2022-10-30T03:33:33;28.55;;;13.25;;
4808;SDS011;2418;49.930;8.606;2022-10-30T03:36:01;27.88;;;12.82;;
4808;SDS011;2418;49.930;8.606;2022-10-30T03:38:27;26.08;;;12.70;;
4808;SDS011;2418;49.930;8.606;2022-10-30T03:40:55;24.27;;;13.10;;
4808;SDS011;2418;49.930;8.606;2022-10-30T03:43:21;24.02;;;12.80;;
4808;SDS011;2418;49.930;8.606;2022-10-30T03:45:51;31.02;;;13.70;;
4808;SDS011;2418;49.930;8.606;2022-10-30T03:48:18;27.52;;;12.98;;
4808;SDS011;2418;49.930;8.606;2022-10-30T03:50:45;27.92;;;12.57;;
4808;SDS011;2418;49.930;8.606;2022-10-30T03:53:11;28.27;;;12.97;;
4808;SDS011;2418;49.930;8.606;2022-10-30T03:55:37;38.00;;;14.02;;
4808;SDS011;2418;49.930;8.606;2022-10-30T03:58:03;29.60;;;13.10;;
4808;SDS011;2418;49.930;8.606;2022-10-30T04:00:29;29.10;;;12.52;;
4808;SDS011;2418;49.930;8.606;2022-10-30T04:02:56;19.58;;;12.05;;
4808;SDS011;2418;49.930;8.606;2022-10-30T04:05:22;28.20;;;12.15;;
4808;SDS011;2418;49.930;8.606;2022-10-30T04:07:53;22.30;;;11.43;;
4808;SDS011;2418;49.930;8.606;2022-10-30T04:10:23;28.85;;;12.60;;
4808;SDS011;2418;49.930;8.606;2022-10-30T04:12:49;21.58;;;12.90;;
4808;SDS011;2418;49.930;8.606;2022-10-30T04:15:15;25.58;;;13.05;;
4808;SDS011;2418;49.930;8.606;2022-10-30T04:17:47;23.37;;;12.20;;
4808;SDS011;2418;49.930;8.606;2022-10-30T04:20:16;24.65;;;13.00;;
4808;SDS011;2418;49.930;8.606;2022-10-30T04:22:43;22.65;;;12.38;;
4808;SDS011;2418;49.930;8.606;2022-10-30T04:25:09;30.05;;;13.18;;
4808;SDS011;2418;49.930;8.606;2022-10-30T04:27:41;22.40;;;13.48;;
4808;SDS011;2418;49.930;8.606;2022-10-30T04:30:08;25.35;;;12.90;;
4808;SDS011;2418;49.930;8.606;2022-10-30T04:32:35;20.27;;;12.65;;
4808;SDS011;2418;49.930;8.606;2022-10-30T04:35:01;25.98;;;13.10;;
4808;SDS011;2418;49.930;8.606;2022-10-30T04:37:28;33.42;;;14.45;;
4808;SDS011;2418;49.930;8.606;2022-10-30T04:39:54;24.60;;;14.32;;
4808;SDS011;2418;49.930;8.606;2022-10-30T04:42:20;34.33;;;13.23;;
4808;SDS011;2418;49.930;8.606;2022-10-30T04:44:45;30.50;;;15.00;;
4808;SDS011;2418;49.930;8.606;2022-10-30T04:47:11;27.90;;;14.63;;
4808;SDS011;2418;49.930;8.606;2022-10-30T04:49:36;29.45;;;14.55;;
4808;SDS011;2418;49.930;8.606;2022-10-30T04:52:02;26.00;;;14.52;;
4808;SDS011;2418;49.930;8.606;2022-10-30T04:54:27;28.97;;;14.40;;
4808;SDS011;2418;49.930;8.606;2022-10-30T04:56:53;32.17;;;14.80;;
4808;SDS011;2418;49.930;8.606;2022-10-30T04:59:18;26.50;;;14.70;;
4808;SDS011;2418;49.930;8.606;2022-10-30T05:01:44;29.50;;;13.23;;
4808;SDS011;2418;49.930;8.606;2022-10-30T05:04:10;28.58;;;14.07;;
4808;SDS011;2418;49.930;8.606;2022-10-30T05:06:35;25.80;;;14.80;;
4808;SDS011;2418;49.930;8.606;2022-10-30T05:09:01;23.30;;;12.90;;
4808;SDS011;2418;49.930;8.606;2022-10-30T05:11:26;39.63;;;14.07;;
4808;SDS011;2418;49.930;8.606;2022-10-30T05:13:52;27.13;;;13.93;;
4808;SDS011;2418;49.930;8.606;2022-10-30T05:16:17;25.00;;;13.50;;
4808;SDS011;2418;49.930;8.606;2022-10-30T05:18:43;33.10;;;14.10;;
4808;SDS011;2418;49.930;8.606;2022-10-30T05:21:09;28.40;;;13.80;;
4808;SDS011;2418;49.930;8.606;2022-10-30T05:23:34;31.77;;;13.35;;
4808;SDS011;2418;49.930;8.606;2022-10-30T05:26:00;23.08;;;13.80;;
4808;SDS011;2418;49.930;8.606;2022-10-30T05:28:26;23.73;;;13.40;;
4808;SDS011;2418;49.930;8.606;2022-10-30T05:30:53;22.40;;;12.90;;
4808;SDS011;2418;49.930;8.606;2022-10-30T05:33:18;33.88;;;13.85;;
4808;SDS011;2418;49.930;8.606;2022-10-30T05:35:44;21.42;;;13.20;;
4808;SDS011;2418;49.930;8.606;2022-10-30T05:38:10;27.27;;;13.32;;
4808;SDS011;2418;49.930;8.606;2022-10-30T05:40:37;27.70;;;13.40;;
4808;SDS011;2418;49.930;8.606;2022-10-30T05:43:02;28.77;;;14.03;;
4808;SDS011;2418;49.930;8.606;2022-10-30T05:45:28;31.40;;;13.35;;
4808;SDS011;2418;49.930;8.606;2022-10-30T05:47:55;28.30;;;12.93;;
4808;SDS011;2418;49.930;8.606;2022-10-30T05:50:25;28.20;;;12.48;;
4808;SDS011;2418;49.930;8.606;2022-10-30T05:52:55;24.65;;;13.98;;
4808;SDS011;2418;49.930;8.606;2022-10-30T05:55:21;34.88;;;14.50;;
4808;SDS011;2418;49.930;8.606;2022-10-30T05:57:48;31.35;;;14.55;;
4808;SDS011;2418;49.930;8.606;2022-10-30T06:00:13;24.95;;;13.70;;
4808;SDS011;2418;49.930;8.606;2022-10-30T06:02:39;26.80;;;14.70;;
4808;SDS011;2418;49.930;8.606;2022-10-30T06:05:05;26.27;;;14.67;;
4808;SDS011;2418;49.930;8.606;2022-10-30T06:07:31;31.02;;;14.50;;
4808;SDS011;2418;49.930;8.606;2022-10-30T06:09:56;33.53;;;14.60;;
4808;SDS011;2418;49.930;8.606;2022-10-30T06:12:22;29.80;;;14.50;;
4808;SDS011;2418;49.930;8.606;2022-10-30T06:14:48;31.02;;;15.40;;
4808;SDS011;2418;49.930;8.606;2022-10-30T06:17:13;29.38;;;14.50;;
4808;SDS011;2418;49.930;8.606;2022-10-30T06:19:40;26.42;;;14.05;;
4808;SDS011;2418;49.930;8.606;2022-10-30T06:22:05;37.65;;;15.60;;
4808;SDS011;2418;49.930;8.606;2022-10-30T06:24:31;26.30;;;13.68;;
4808;SDS011;2418;49.930;8.606;2022-10-30T06:26:57;34.03;;;14.60;;
4808;SDS011;2418;49.930;8.606;2022-10-30T06:29:23;26.65;;;14.00;;
4808;SDS011;2418;49.930;8.606;2022-10-30T06:31:48;25.98;;;15.07;;
4808;SDS011;2418;49.930;8.606;2022-10-30T06:34:14;26.70;;;14.10;;
4808;SDS011;2418;49.930;8.606;2022-10-30T06:36:39;31.93;;;14.47;;
4808;SDS011;2418;49.930;8.606;2022-10-30T06:39:05;22.73;;;13.70;;
4808;SDS011;2418;49.930;8.606;2022-10-30T06:41:31;29.23;;;14.43;;
4808;SDS011;2418;49.930;8.606;2022-10-30T06:43:57;25.58;;;15.40;;
4808;SDS011;2418;49.930;8.606;2022-10-30T06:46:23;28.63;;;14.23;;
4808;SDS011;2418;49.930;8.606;2022-10-30T06:48:49;27.17;;;14.17;;
4808;SDS011;2418;49.930;8.606;2022-10-30T06:51:14;23.93;;;14.33;;
4808;SDS011;2418;49.930;8.606;2022-10-30T06:53:40;25.23;;;14.00;;
4808;SDS011;2418;49.930;8.606;2022-10-30T06:56:07;26.23;;;14.60;;
4808;SDS011;2418;49.930;8.606;2022-10-30T06:58:33;23.52;;;14.75;;
4808;SDS011;2418;49.930;8.606;2022-10-30T07:01:03;27.60;;;15.25;;
4808;SDS011;2418;49.930;8.606;2022-10-30T07:03:30;27.52;;;15.68;;
4808;SDS011;2418;49.930;8.606;2022-10-30T07:05:57;32.78;;;15.57;;
4808;SDS011;2418;49.930;8.606;2022-10-30T07:08:23;27.08;;;15.50;;
4808;SDS011;2418;49.930;8.606;2022-10-30T07:10:48;22.75;;;13.63;;
4808;SDS011;2418;49.930;8.606;2022-10-30T07:13:14;24.48;;;13.85;;
4808;SDS011;2418;49.930;8.606;2022-10-30T07:15:40;20.95;;;12.52;;
4808;SDS011;2418;49.930;8.606;2022-10-30T07:18:06;28.63;;;13.23;;
4808;SDS011;2418;49.930;8.606;2022-10-30T07:20:32;21.60;;;12.57;;
4808;SDS011;2418;49.930;8.606;2022-10-30T07:22:58;23.17;;;11.90;;
4808;SDS011;2418;49.930;8.606;2022-10-30T07:25:24;21.60;;;12.50;;
4808;SDS011;2418;49.930;8.606;2022-10-30T07:27:51;21.40;;;12.52;;
4808;SDS011;2418;49.930;8.606;2022-10-30T07:30:19;24.30;;;13.05;;
4808;SDS011;2418;49.930;8.606;2022-10-30T07:32:54;22.40;;;13.20;;
4808;SDS011;2418;49.930;8.606;2022-10-30T07:35:23;25.60;;;14.07;;
4808;SDS011;2418;49.930;8.606;2022-10-30T07:37:49;29.53;;;13.60;;
4808;SDS011;2418;49.930;8.606;2022-10-30T07:40:15;28.05;;;14.13;;
4808;SDS011;2418;49.930;8.606;2022-10-30T07:42:40;27.95;;;12.82;;
4808;SDS011;2418;49.930;8.606;2022-10-30T07:45:06;20.35;;;12.27;;
4808;SDS011;2418;49.930;8.606;2022-10-30T07:47:37;16.20;;;11.82;;
4808;SDS011;2418;49.930;8.606;2022-10-30T07:50:07;23.05;;;11.75;;
4808;SDS011;2418;49.930;8.606;2022-10-30T07:52:33;20.95;;;12.00;;
4808;SDS011;2418;49.930;8.606;2022-10-30T07:54:58;23.40;;;11.90;;
4808;SDS011;2418;49.930;8.606;2022-10-30T07:57:24;25.33;;;12.30;;
4808;SDS011;2418;49.930;8.606;2022-10-30T07:59:49;25.80;;;12.88;;
4808;SDS011;2418;49.930;8.606;2022-10-30T08:02:15;23.70;;;12.98;;
4808;SDS011;2418;49.930;8.606;2022-10-30T08:04:40;22.65;;;13.60;;
4808;SDS011;2418;49.930;8.606;2022-10-30T08:07:06;20.87;;;13.30;;
4808;SDS011;2418;49.930;8.606;2022-10-30T08:09:32;20.70;;;13.03;;
4808;SDS011;2418;49.930;8.606;2022-10-30T08:11:57;21.70;;;13.23;;
4808;SDS011;2418;49.930;8.606;2022-10-30T08:14:23;26.40;;;14.00;;
4808;SDS011;2418;49.930;8.606;2022-10-30T08:16:49;26.10;;;12.65;;
4808;SDS011;2418;49.930;8.606;2022-10-30T08:19:15;26.35;;;13.90;;
4808;SDS011;2418;49.930;8.606;2022-10-30T08:21:41;22.15;;;12.55;;
4808;SDS011;2418;49.930;8.606;2022-10-30T08:24:06;21.80;;;13.18;;
4808;SDS011;2418;49.930;8.606;2022-10-30T08:26:32;24.63;;;12.65;;
4808;SDS011;2418;49.930;8.606;2022-10-30T08:28:58;21.33;;;12.80;;
4808;SDS011;2418;49.930;8.606;2022-10-30T08:31:23;19.95;;;12.35;;
4808;SDS011;2418;49.930;8.606;2022-10-30T08:33:49;19.73;;;12.43;;
4808;SDS011;2418;49.930;8.606;2022-10-30T08:36:14;26.00;;;14.17;;
4808;SDS011;2418;49.930;8.606;2022-10-30T08:38:40;22.57;;;13.40;;
4808;SDS011;2418;49.930;8.606;2022-10-30T08:41:06;22.77;;;13.25;;
4808;SDS011;2418;49.930;8.606;2022-10-30T08:43:32;38.17;;;16.30;;
4808;SDS011;2418;49.930;8.606;2022-10-30T08:45:58;27.85;;;15.85;;
4808;SDS011;2418;49.930;8.606;2022-10-30T08:48:24;31.08;;;15.80;;
4808;SDS011;2418;49.930;8.606;2022-10-30T08:50:49;28.52;;;16.42;;
4808;SDS011;2418;49.930;8.606;2022-10-30T08:53:15;28.70;;;15.40;;
4808;SDS011;2418;49.930;8.606;2022-10-30T08:55:41;34.20;;;15.90;;
4808;SDS011;2418;49.930;8.606;2022-10-30T08:58:07;25.80;;;14.60;;
4808;SDS011;2418;49.930;8.606;2022-10-30T09:00:33;25.20;;;15.30;;
4808;SDS011;2418;49.930;8.606;2022-10-30T09:02:59;28.20;;;15.48;;
4808;SDS011;2418;49.930;8.606;2022-10-30T09:05:25;28.42;;;15.13;;
4808;SDS011;2418;49.930;8.606;2022-10-30T09:07:55;28.08;;;15.90;;
4808;SDS011;2418;49.930;8.606;2022-10-30T09:10:22;33.25;;;15.20;;
4808;SDS011;2418;49.930;8.606;2022-10-30T09:12:52;27.15;;;14.93;;
4808;SDS011;2418;49.930;8.606;2022-10-30T09:15:22;28.75;;;14.70;;
4808;SDS011;2418;49.930;8.606;2022-10-30T09:17:55;24.85;;;14.32;;
4808;SDS011;2418;49.930;8.606;2022-10-30T09:20:25;24.55;;;14.10;;
4808;SDS011;2418;49.930;8.606;2022-10-30T09:22:52;25.58;;;13.93;;
4808;SDS011;2418;49.930;8.606;2022-10-30T09:25:18;23.17;;;14.40;;
4808;SDS011;2418;49.930;8.606;2022-10-30T09:27:44;24.88;;;14.20;;
4808;SDS011;2418;49.930;8.606;2022-10-30T09:30:09;27.87;;;14.10;;
4808;SDS011;2418;49.930;8.606;2022-10-30T09:32:36;25.00;;;14.20;;
4808;SDS011;2418;49.930;8.606;2022-10-30T09:35:02;25.10;;;13.83;;
4808;SDS011;2418;49.930;8.606;2022-10-30T09:37:32;20.70;;;13.47;;
4808;SDS011;2418;49.930;8.606;2022-10-30T09:40:01;25.95;;;13.40;;
4808;SDS011;2418;49.930;8.606;2022-10-30T09:42:43;25.23;;;13.13;;
4808;SDS011;2418;49.930;8.606;2022-10-30T09:56:13;32.50;;;12.70;;
4808;SDS011;2418;49.930;8.606;2022-10-30T10:01:32;32.20;;;12.53;;
4808;SDS011;2418;49.930;8.606;2022-10-30T10:04:18;21.65;;;12.60;;
4808;SDS011;2418;49.930;8.606;2022-10-30T10:07:16;25.10;;;12.45;;
4808;SDS011;2418;49.930;8.606;2022-10-30T10:09:46;24.85;;;12.90;;
4808;SDS011;2418;49.930;8.606;2022-10-30T10:12:25;22.27;;;12.85;;
4808;SDS011;2418;49.930;8.606;2022-10-30T10:14:52;20.70;;;12.63;;
4808;SDS011;2418;49.930;8.606;2022-10-30T10:17:24;26.00;;;13.27;;
4808;SDS011;2418;49.930;8.606;2022-10-30T10:19:58;23.92;;;12.20;;
4808;SDS011;2418;49.930;8.606;2022-10-30T10:22:28;31.67;;;12.57;;
4808;SDS011;2418;49.930;8.606;2022-10-30T10:25:01;21.33;;;11.80;;
4808;SDS011;2418;49.930;8.606;2022-10-30T10:30:21;27.35;;;12.27;;
4808;SDS011;2418;49.930;8.606;2022-10-30T10:41:10;21.15;;;11.90;;
4808;SDS011;2418;49.930;8.606;2022-10-30T10:44:01;23.70;;;11.48;;
4808;SDS011;2418;49.930;8.606;2022-10-30T10:51:58;24.43;;;11.40;;
4808;SDS011;2418;49.930;8.606;2022-10-30T10:54:35;27.10;;;11.00;;
4808;SDS011;2418;49.930;8.606;2022-10-30T10:57:06;28.02;;;11.40;;
4808;SDS011;2418;49.930;8.606;2022-10-30T10:59:33;24.25;;;10.73;;
4808;SDS011;2418;49.930;8.606;2022-10-30T11:04:37;21.48;;;10.90;;
4808;SDS011;2418;49.930;8.606;2022-10-30T11:09:45;27.17;;;10.80;;
4808;SDS011;2418;49.930;8.606;2022-10-30T11:12:15;17.77;;;10.40;;
4808;SDS011;2418;49.930;8.606;2022-10-30T11:14:42;16.27;;;10.43;;
4808;SDS011;2418;49.930;8.606;2022-10-30T11:19:48;24.52;;;11.10;;
4808;SDS011;2418;49.930;8.606;2022-10-30T11:22:22;21.53;;;10.30;;
4808;SDS011;2418;49.930;8.606;2022-10-30T11:24:54;18.52;;;9.93;;
4808;SDS011;2418;49.930;8.606;2022-10-30T11:32:26;19.80;;;10.10;;
4808;SDS011;2418;49.930;8.606;2022-10-30T11:37:31;14.68;;;9.48;;
4808;SDS011;2418;49.930;8.606;2022-10-30T11:40:06;22.02;;;10.00;;
4808;SDS011;2418;49.930;8.606;2022-10-30T11:42:34;18.65;;;10.27;;
4808;SDS011;2418;49.930;8.606;2022-10-30T11:45:02;17.13;;;9.00;;
4808;SDS011;2418;49.930;8.606;2022-10-30T11:47:34;24.90;;;9.27;;
4808;SDS011;2418;49.930;8.606;2022-10-30T11:50:02;25.20;;;9.50;;
4808;SDS011;2418;49.930;8.606;2022-10-30T11:52:34;15.40;;;9.18;;
4808;SDS011;2418;49.930;8.606;2022-10-30T11:55:22;24.00;;;10.05;;
4808;SDS011;2418;49.930;8.606;2022-10-30T11:58:01;17.73;;;9.47;;
4808;SDS011;2418;49.930;8.606;2022-10-30T12:00:32;25.73;;;9.80;;
4808;SDS011;2418;49.930;8.606;2022-10-30T12:03:00;20.27;;;9.70;;
4808;SDS011;2418;49.930;8.606;2022-10-30T12:05:34;16.15;;;9.93;;
4808;SDS011;2418;49.930;8.606;2022-10-30T12:10:31;16.83;;;10.23;;
4808;SDS011;2418;49.930;8.606;2022-10-30T12:13:10;16.83;;;9.63;;
4808;SDS011;2418;49.930;8.606;2022-10-30T12:15:43;19.23;;;9.00;;
4808;SDS011;2418;49.930;8.606;2022-10-30T12:18:23;23.70;;;9.77;;
4808;SDS011;2418;49.930;8.606;2022-10-30T12:20:52;20.02;;;9.85;;
4808;SDS011;2418;49.930;8.606;2022-10-30T12:23:21;26.20;;;10.25;;
4808;SDS011;2418;49.930;8.606;2022-10-30T12:25:50;20.90;;;10.20;;
4808;SDS011;2418;49.930;8.606;2022-10-30T12:28:19;25.83;;;10.63;;
4808;SDS011;2418;49.930;8.606;2022-10-30T12:30:51;15.68;;;9.60;;
4808;SDS011;2418;49.930;8.606;2022-10-30T12:33:46;20.02;;;9.77;;
4808;SDS011;2418;49.930;8.606;2022-10-30T12:36:23;24.23;;;10.20;;
4808;SDS011;2418;49.930;8.606;2022-10-30T12:38:54;15.77;;;8.90;;
4808;SDS011;2418;49.930;8.606;2022-10-30T12:41:42;25.25;;;10.70;;
4808;SDS011;2418;49.930;8.606;2022-10-30T12:44:16;17.27;;;9.85;;
4808;SDS011;2418;49.930;8.606;2022-10-30T12:47:07;18.65;;;9.20;;
4808;SDS011;2418;49.930;8.606;2022-10-30T12:49:49;21.23;;;9.10;;
4808;SDS011;2418;49.930;8.606;2022-10-30T12:52:18;22.92;;;10.60;;
4808;SDS011;2418;49.930;8.606;2022-10-30T12:57:39;17.10;;;8.55;;
4808;SDS011;2418;49.930;8.606;2022-10-30T13:00:35;22.40;;;9.45;;
4808;SDS011;2418;49.930;8.606;2022-10-30T13:06:04;24.70;;;10.73;;
4808;SDS011;2418;49.930;8.606;2022-10-30T13:13:57;15.43;;;8.88;;
4808;SDS011;2418;49.930;8.606;2022-10-30T13:16:26;20.75;;;9.07;;
4808;SDS011;2418;49.930;8.606;2022-10-30T13:18:55;16.30;;;8.63;;
4808;SDS011;2418;49.930;8.606;2022-10-30T13:21:32;19.15;;;8.93;;
4808;SDS011;2418;49.930;8.606;2022-10-30T13:24:10;16.15;;;8.13;;
4808;SDS011;2418;49.930;8.606;2022-10-30T13:37:56;16.50;;;7.60;;
4808;SDS011;2418;49.930;8.606;2022-10-30T13:40:56;12.70;;;5.93;;
4808;SDS011;2418;49.930;8.606;2022-10-30T13:43:27;17.83;;;7.13;;
4808;SDS011;2418;49.930;8.606;2022-10-30T13:46:18;15.98;;;6.90;;
4808;SDS011;2418;49.930;8.606;2022-10-30T13:49:09;15.38;;;6.97;;
4808;SDS011;2418;49.930;8.606;2022-10-30T13:52:05;13.48;;;6.80;;
4808;SDS011;2418;49.930;8.606;2022-10-30T13:57:29;16.25;;;6.47;;
4808;SDS011;2418;49.930;8.606;2022-10-30T14:00:29;12.20;;;6.33;;
4808;SDS011;2418;49.930;8.606;2022-10-30T14:08:47;16.90;;;5.72;;
4808;SDS011;2418;49.930;8.606;2022-10-30T14:11:34;8.70;;;5.75;;
4808;SDS011;2418;49.930;8.606;2022-10-30T14:19:12;14.20;;;5.65;;
4808;SDS011;2418;49.930;8.606;2022-10-30T14:21:55;12.73;;;6.00;;
4808;SDS011;2418;49.930;8.606;2022-10-30T14:24:31;23.00;;;6.60;;
4808;SDS011;2418;49.930;8.606;2022-10-30T14:31:56;18.27;;;5.85;;
4808;SDS011;2418;49.930;8.606;2022-10-30T14:40:33;15.50;;;7.57;;
4808;SDS011;2418;49.930;8.606;2022-10-30T14:43:08;18.13;;;7.50;;
4808;SDS011;2418;49.930;8.606;2022-10-30T14:45:46;22.55;;;7.20;;
4808;SDS011;2418;49.930;8.606;2022-10-30T14:56:52;17.05;;;6.10;;
4808;SDS011;2418;49.930;8.606;2022-10-30T15:04:25;14.75;;;5.95;;
4808;SDS011;2418;49.930;8.606;2022-10-30T15:09:52;16.52;;;7.18;;
4808;SDS011;2418;49.930;8.606;2022-10-30T15:13:34;18.27;;;6.45;;
4808;SDS011;2418;49.930;8.606;2022-10-30T15:15:29;14.00;;;6.70;;
4808;SDS011;2418;49.930;8.606;2022-10-30T15:17:56;12.35;;;5.88;;
4808;SDS011;2418;49.930;8.606;2022-10-30T15:20:30;12.43;;;6.53;;
4808;SDS011;2418;49.930;8.606;2022-10-30T15:22:58;13.65;;;6.10;;
4808;SDS011;2418;49.930;8.606;2022-10-30T15:25:50;14.15;;;6.20;;
4808;SDS011;2418;49.930;8.606;2022-10-30T15:28:20;17.40;;;5.80;;
4808;SDS011;2418;49.930;8.606;2022-10-30T15:33:42;11.30;;;7.50;;
4808;SDS011;2418;49.930;8.606;2022-10-30T15:36:18;20.15;;;7.03;;
4808;SDS011;2418;49.930;8.606;2022-10-30T15:41:38;17.85;;;6.75;;
4808;SDS011;2418;49.930;8.606;2022-10-30T15:44:31;34.55;;;17.63;;
4808;SDS011;2418;49.930;8.606;2022-10-30T15:47:00;34.33;;;17.43;;
4808;SDS011;2418;49.930;8.606;2022-10-30T15:51:58;26.42;;;15.60;;
4808;SDS011;2418;49.930;8.606;2022-10-30T15:54:26;21.30;;;12.85;;
4808;SDS011;2418;49.930;8.606;2022-10-30T15:56:56;21.02;;;12.30;;
4808;SDS011;2418;49.930;8.606;2022-10-30T15:59:24;20.98;;;12.10;;
4808;SDS011;2418;49.930;8.606;2022-10-30T16:01:53;17.17;;;10.63;;
4808;SDS011;2418;49.930;8.606;2022-10-30T16:04:21;19.00;;;11.57;;
4808;SDS011;2418;49.930;8.606;2022-10-30T16:06:50;40.47;;;29.02;;
4808;SDS011;2418;49.930;8.606;2022-10-30T16:09:21;23.10;;;14.18;;
4808;SDS011;2418;49.930;8.606;2022-10-30T16:11:48;28.70;;;12.53;;
4808;SDS011;2418;49.930;8.606;2022-10-30T16:14:17;16.98;;;9.57;;
4808;SDS011;2418;49.930;8.606;2022-10-30T16:16:46;21.45;;;9.02;;
4808;SDS011;2418;49.930;8.606;2022-10-30T16:19:17;21.80;;;9.00;;
4808;SDS011;2418;49.930;8.606;2022-10-30T16:21:56;16.77;;;8.52;;
4808;SDS011;2418;49.930;8.606;2022-10-30T16:24:28;23.90;;;8.60;;
4808;SDS011;2418;49.930;8.606;2022-10-30T16:27:04;17.40;;;9.30;;
4808;SDS011;2418;49.930;8.606;2022-10-30T16:29:32;29.08;;;10.15;;
4808;SDS011;2418;49.930;8.606;2022-10-30T16:31:58;24.17;;;9.68;;
4808;SDS011;2418;49.930;8.606;2022-10-30T16:34:26;65.45;;;30.35;;
4808;SDS011;2418;49.930;8.606;2022-10-30T16:36:59;136.30;;;58.17;;
4808;SDS011;2418;49.930;8.606;2022-10-30T16:39:26;168.55;;;70.78;;
4808;SDS011;2418;49.930;8.606;2022-10-30T16:41:54;175.88;;;79.45;;
4808;SDS011;2418;49.930;8.606;2022-10-30T16:44:29;83.70;;;38.90;;
4808;SDS011;2418;49.930;8.606;2022-10-30T16:47:05;86.35;;;39.75;;
4808;SDS011;2418;49.930;8.606;2022-10-30T16:49:48;59.87;;;25.33;;
4808;SDS011;2418;49.930;8.606;2022-10-30T16:52:20;91.30;;;43.70;;
4808;SDS011;2418;49.930;8.606;2022-10-30T16:54:56;103.57;;;52.47;;
4808;SDS011;2418;49.930;8.606;2022-10-30T16:57:52;72.03;;;38.77;;
4808;SDS011;2418;49.930;8.606;2022-10-30T17:00:29;48.47;;;23.02;;
4808;SDS011;2418;49.930;8.606;2022-10-30T17:02:56;27.75;;;16.10;;
4808;SDS011;2418;49.930;8.606;2022-10-30T17:08:23;28.80;;;14.00;;
4808;SDS011;2418;49.930;8.606;2022-10-30T17:11:14;29.60;;;14.90;;
4808;SDS011;2418;49.930;8.606;2022-10-30T17:16:23;19.45;;;11.68;;
4808;SDS011;2418;49.930;8.606;2022-10-30T17:18:51;24.92;;;10.75;;
4808;SDS011;2418;49.930;8.606;2022-10-30T17:21:35;24.45;;;10.75;;
4808;SDS011;2418;49.930;8.606;2022-10-30T17:24:04;26.17;;;9.90;;
4808;SDS011;2418;49.930;8.606;2022-10-30T17:26:43;19.42;;;9.45;;
4808;SDS011;2418;49.930;8.606;2022-10-30T17:32:24;24.52;;;10.00;;
4808;SDS011;2418;49.930;8.606;2022-10-30T17:35:11;21.05;;;9.25;;
4808;SDS011;2418;49.930;8.606;2022-10-30T17:37:38;17.80;;;9.57;;
4808;SDS011;2418;49.930;8.606;2022-10-30T17:40:04;32.15;;;14.27;;
4808;SDS011;2418;49.930;8.606;2022-10-30T17:42:30;27.48;;;13.50;;
4808;SDS011;2418;49.930;8.606;2022-10-30T17:44:56;31.40;;;12.88;;